Time;durP1;ratioP1;P1;durP2;ratioP2;P2;SDS_P1;SDS_P2;PMS_P1;PMS_P2;Temp;Humidity;BMP_temperature;BMP_pressure;BME280_temperature;BME280_humidity;BME280_pressure;Samples;Min_cycle;Max_cycle;Signal;HPM_P1;HPM_P2
2022/03/30 00:00:33;;;;;;;19.73;10.32;;;;;;;7.19;63.15;91846.31;5014741;28;20029;-89
2022/03/30 00:03:11;;;;;;;;;;;;;;;;;;;;;
2022/03/30 00:06:05;;;;;;;20.60;9.75;;;;;;;6.90;63.33;91796.97;5033870;28;20486;-89
2022/03/30 00:08:40;;;;;;;24.50;9.60;;;;;;;6.88;62.90;91793.88;5053339;28;20044;-89
2022/03/30 00:11:19;;;;;;;19.10;10.10;;;;;;;7.16;63.07;91825.28;5047406;28;20512;-89
2022/03/30 00:14:28;;;;;;;;;;;;;;;;;;;;;
2022/03/30 00:17:38;;;;;;;;;;;;;;;;;;;;;
2022/03/30 00:20:13;;;;;;;26.05;11.18;;;;;;;6.83;63.07;91763.50;5050426;28;20041;-90
2022/03/30 00:23:05;;;;;;;19.70;10.55;;;;;;;6.87;62.60;91767.09;5021070;28;20040;-89
2022/03/30 00:26:05;;;;;;;;;;;;;;;;;;;;;
2022/03/30 00:28:43;;;;;;;24.70;10.73;;;;;;;6.99;63.38;91784.88;5025729;28;20136;-90
2022/03/30 00:31:34;;;;;;;20.58;10.38;;;;;;;6.70;63.50;91737.41;5021251;28;20056;-90
2022/03/30 00:34:17;;;;;;;25.98;10.70;;;;;;;6.75;63.33;91748.50;5033906;28;20120;-89
2022/03/30 00:36:51;;;;;;;23.50;9.98;;;;;;;6.98;63.23;91782.56;5022174;28;20057;-89
2022/03/30 00:39:59;;;;;;;;;;;;;;;;;;;;;
2022/03/30 00:42:44;;;;;;;17.70;9.90;;;;;;;6.81;63.86;91752.59;5041782;28;20051;-89
2022/03/30 00:45:15;;;;;;;25.47;11.13;;;;;;;6.82;63.78;91754.16;5054785;28;20041;-91
2022/03/30 00:48:11;;;;;;;19.45;10.05;;;;;;;7.06;64.15;91793.13;5036683;28;20405;-90
2022/03/30 00:50:59;;;;;;;25.35;10.82;;;;;;;6.93;64.21;91778.19;5021070;28;20043;-89
2022/03/30 00:53:38;;;;;;;26.02;12.25;;;;;;;6.96;64.10;91787.28;5007727;28;20064;-89
2022/03/30 00:56:11;;;;;;;28.25;12.13;;;;;;;6.52;64.62;91728.53;5019877;28;20042;-89
2022/03/30 00:58:52;;;;;;;31.83;11.52;;;;;;;6.44;64.60;91720.31;5039519;28;20041;-89
2022/03/30 01:01:31;;;;;;;26.10;10.77;;;;;;;6.38;64.87;91724.00;5054067;28;20490;-89
2022/03/30 01:04:11;;;;;;;22.48;10.35;;;;;;;6.41;64.57;91733.84;5037351;28;20044;-89
2022/03/30 01:06:55;;;;;;;25.42;10.60;;;;;;;6.52;65.01;91754.53;5021226;28;20045;-91
2022/03/30 01:09:34;;;;;;;25.40;10.90;;;;;;;6.44;65.51;91751.50;5038025;28;20033;-89
2022/03/30 01:15:33;;;;;;;21.67;9.90;;;;;;;6.08;65.30;91698.38;5027081;28;20045;-90
2022/03/30 01:18:28;;;;;;;18.30;9.30;;;;;;;6.12;65.43;91705.31;5025334;28;20469;-89
2022/03/30 01:21:37;;;;;;;22.20;9.35;;;;;;;6.33;65.77;91738.91;5020923;28;20037;-90
2022/03/30 01:24:10;;;;;;;17.65;9.60;;;;;;;6.03;65.43;91694.78;5026100;28;20041;-90
2022/03/30 01:26:55;;;;;;;19.60;10.48;;;;;;;5.91;65.63;91673.59;5041834;28;20486;-89
2022/03/30 01:32:40;;;;;;;;;;;;;;;;;;;;;
2022/03/30 01:35:22;;;;;;;21.10;9.75;;;;;;;5.90;65.73;91673.84;5052720;28;20048;-89
2022/03/30 01:37:59;;;;;;;19.30;9.60;;;;;;;5.99;65.78;91686.00;5049623;28;20112;-89
2022/03/30 01:40:35;;;;;;;18.05;9.73;;;;;;;5.85;65.94;91659.09;5024629;28;20033;-89
2022/03/30 01:43:06;;;;;;;17.27;9.82;;;;;;;5.88;66.18;91663.75;5054210;28;20037;-88
2022/03/30 01:45:58;;;;;;;;;;;;;;;;;;;;;
2022/03/30 01:48:47;;;;;;;24.27;9.85;;;;;;;5.89;66.05;91644.50;5038781;28;20614;-89
2022/03/30 01:51:28;;;;;;;18.98;10.50;;;;;;;5.88;65.85;91639.59;5020568;28;20136;-88
2022/03/30 01:54:02;;;;;;;21.00;10.88;;;;;;;5.94;66.01;91649.66;5005641;28;20037;-89
2022/03/30 01:57:06;;;;;;;22.48;10.30;;;;;;;6.33;66.14;91699.91;5016469;28;20052;-89
2022/03/30 02:00:04;;;;;;;;;;;;;;;;;;;;;
2022/03/30 02:02:46;;;;;;;18.08;9.43;;;;;;;5.88;66.20;91618.81;5039918;28;20055;-90
2022/03/30 02:05:46;;;;;;;26.83;10.45;;;;;;;6.11;66.49;91649.22;5034257;28;20041;-90
2022/03/30 02:08:59;;;;;;;;;;;;;;;;;;;;;
2022/03/30 02:11:54;;;;;;;21.63;10.27;;;;;;;6.31;66.05;91666.41;5021495;28;20040;-89
2022/03/30 02:14:51;;;;;;;16.80;9.57;;;;;;;6.15;66.08;91636.47;5053077;28;20119;-89
2022/03/30 02:17:51;;;;;;;20.13;10.07;;;;;;;6.11;65.96;91617.28;5020482;28;20047;-89
2022/03/30 02:20:58;;;;;;;;;;;;;;;;;;;;;
2022/03/30 02:23:34;;;;;;;20.60;9.70;;;;;;;6.15;66.15;91610.47;5032181;28;20505;-89
2022/03/30 02:26:27;;;;;;;17.00;9.27;;;;;;;6.38;66.20;91640.06;5046384;28;20037;-90
2022/03/30 02:29:16;;;;;;;;;;;;;;;;;;;;;
2022/03/30 02:31:53;;;;;;;22.00;11.68;;;;;;;6.47;65.57;91653.97;5053023;28;20041;-90
2022/03/30 02:34:58;;;;;;;25.55;13.18;;;;;;;6.19;65.37;91608.84;5035257;28;20124;-91
2022/03/30 02:37:43;;;;;;;28.85;13.13;;;;;;;6.23;65.41;91602.03;5029315;28;20036;-89
2022/03/30 02:40:51;;;;;;;23.20;12.27;;;;;;;6.40;65.29;91628.31;5038094;28;20095;-89
2022/03/30 02:43:32;;;;;;;23.80;12.55;;;;;;;6.25;65.22;91594.72;5018416;28;20063;-89
2022/03/30 02:46:13;;;;;;;24.27;12.32;;;;;;;6.40;65.74;91620.53;5022805;28;20033;-89
2022/03/30 02:49:04;;;;;;;24.05;12.95;;;;;;;6.56;65.72;91641.13;5037625;28;20045;-89
2022/03/30 02:52:00;;;;;;;24.77;12.77;;;;;;;6.31;65.18;91603.25;5055394;28;20033;-89
2022/03/30 02:54:52;;;;;;;25.33;12.38;;;;;;;6.44;65.51;91623.34;5056040;28;20071;-91
2022/03/30 02:57:23;;;;;;;24.50;12.63;;;;;;;6.21;65.81;91585.94;5012633;28;20128;-90
2022/03/30 03:03:23;;;;;;;24.85;12.63;;;;;;;6.23;65.91;91586.44;5053315;28;20025;-89
2022/03/30 03:06:01;;;;;;;28.70;12.73;;;;;;;6.27;65.95;91587.44;5002836;28;20068;-91
2022/03/30 03:08:45;;;;;;;29.50;12.10;;;;;;;6.25;66.29;91589.53;5023178;28;20037;-89
2022/03/30 03:11:43;;;;;;;;;;;;;;;;;;;;;
2022/03/30 03:14:33;;;;;;;19.25;10.98;;;;;;;6.14;66.04;91591.50;5033261;28;20053;-89
2022/03/30 03:17:15;;;;;;;;;;;;;;;;;;;;;
2022/03/30 03:20:19;;;;;;;20.38;10.60;;;;;;;6.33;65.59;91612.31;5056764;28;20035;-89
2022/03/30 03:22:49;;;;;;;27.13;10.88;;;;;;;6.32;65.18;91608.16;5046298;28;20055;-90
2022/03/30 03:25:51;;;;;;;18.92;9.88;;;;;;;6.35;65.44;91612.81;5052227;28;20128;-90
2022/03/30 03:28:45;;;;;;;;;;;;;;;;;;;;;
2022/03/30 03:31:25;;;;;;;24.40;10.13;;;;;;;6.37;64.06;91600.31;5021795;28;20043;-89
2022/03/30 03:34:08;;;;;;;21.10;10.20;;;;;;;6.10;64.10;91563.75;5012554;28;20025;-90
2022/03/30 03:36:44;;;;;;;26.48;10.85;;;;;;;6.51;64.35;91622.97;5021809;28;20063;-93
2022/03/30 03:39:19;;;;;;;28.13;10.55;;;;;;;6.09;64.17;91557.78;5038906;28;20041;-92
2022/03/30 03:41:58;;;;;;;24.95;10.35;;;;;;;6.00;64.50;91547.25;5021855;28;20371;-95
2022/03/30 03:44:53;;;;;;;21.60;10.55;;;;;;;6.03;64.46;91554.50;5054132;28;20052;-89
2022/03/30 03:47:51;;;;;;;17.77;10.63;;;;;;;5.98;64.74;91544.16;5053886;28;20033;-89
2022/03/30 03:50:26;;;;;;;19.50;10.63;;;;;;;5.98;64.63;91544.16;5038670;28;20033;-89
2022/03/30 03:52:58;;;;;;;;;;;;;;;6.41;64.75;91606.47;5053197;28;20037;-90
2022/03/30 03:55:26;;;;;;;27.25;10.15;;;;;;;5.94;64.65;91531.97;5037671;28;19912;-90
2022/03/30 03:58:11;;;;;;;22.92;10.88;;;;;;;5.98;64.88;91538.97;5024976;28;20036;-89
2022/03/30 04:00:55;;;;;;;;;;;;;;;;;;;;;
2022/03/30 04:03:45;;;;;;;20.48;10.55;;;;;;;6.15;65.52;91563.69;5053678;28;20056;-88
2022/03/30 04:06:37;;;;;;;22.65;10.50;;;;;;;6.01;65.39;91532.41;5052583;28;20029;-89
2022/03/30 04:09:25;;;;;;;22.35;10.32;;;;;;;6.24;65.63;91573.19;5032420;28;20056;-89
2022/03/30 04:11:56;;;;;;;19.77;9.65;;;;;;;5.97;65.50;91521.84;5017185;28;20049;-89
2022/03/30 04:14:41;;;;;;;22.88;11.70;;;;;;;5.99;65.69;91530.13;5032988;28;20056;-89
2022/03/30 04:17:36;;;;;;;;;;;;;;;;;;;;;
2022/03/30 04:20:16;;;;;;;20.15;11.93;;;;;;;6.02;65.48;91523.59;5033036;28;20164;-89
2022/03/30 04:23:03;;;;;;;20.67;11.40;;;;;;;6.28;65.84;91567.41;5045516;28;20725;-88
2022/03/30 04:25:44;;;;;;;25.30;11.27;;;;;;;6.18;65.55;91545.69;5048683;28;20055;-89
2022/03/30 04:28:44;;;;;;;;;;;;;;;;;;;;;
2022/03/30 04:31:23;;;;;;;22.08;11.18;;;;;;;6.12;65.76;91538.25;5047328;28;20045;-88
2022/03/30 04:34:10;;;;;;;26.08;12.30;;;;;;;6.29;65.43;91548.94;5050240;28;20084;-88
2022/03/30 04:36:43;;;;;;;25.38;11.80;;;;;;;6.00;65.90;91508.28;5043448;28;20033;-89
2022/03/30 04:39:28;;;;;;;;;;;;;;;;;;;;;
2022/03/30 04:42:13;;;;;;;24.80;10.93;;;;;;;5.98;65.55;91510.38;5046994;28;20564;-89
2022/03/30 04:45:12;;;;;;;22.35;11.68;;;;;;;6.40;65.90;91573.72;5051079;28;20084;-89
2022/03/30 04:48:00;;;;;;;;;;;;;;;;;;;;;
2022/03/30 04:50:43;;;;;;;;;;;;;;;;;;;;;
2022/03/30 04:53:43;;;;;;;33.65;12.10;;;;;;;6.00;66.34;91521.25;5043217;28;20045;-89
2022/03/30 04:56:39;;;;;;;;;;;;;;;;;;;;;
2022/03/30 04:59:14;;;;;;;23.60;13.07;;;;;;;6.02;69.95;91523.59;5023717;28;20063;-88
2022/03/30 05:01:53;;;;;;;29.33;14.90;;;;;;;6.11;72.57;91518.53;5031098;28;20088;-89
2022/03/30 05:05:02;;;;;;;36.22;15.75;;;;;;;6.06;75.77;91519.38;5034447;28;20045;-88
2022/03/30 05:07:43;;;;;;;31.38;16.58;;;;;;;6.05;76.72;91512.63;5034727;28;20039;-89
2022/03/30 05:10:29;;;;;;;32.55;16.90;;;;;;;5.94;79.58;91512.00;5027856;28;20528;-86
2022/03/30 05:13:00;;;;;;;33.08;17.83;;;;;;;5.91;81.86;91516.97;5044431;28;20056;-86
2022/03/30 05:15:28;;;;;;;37.05;19.48;;;;;;;5.91;82.57;91511.75;5031283;28;20045;-87
2022/03/30 05:18:02;;;;;;;38.88;19.15;;;;;;;5.74;83.86;91513.03;5045876;28;20031;-86
2022/03/30 05:20:28;;;;;;;40.05;19.20;;;;;;;5.93;85.08;91549.41;5028186;28;20045;-91
2022/03/30 05:22:53;;;;;;;37.47;18.42;;;;;;;6.01;85.12;91559.19;5044193;28;20033;-86
2022/03/30 05:25:23;;;;;;;41.30;20.13;;;;;;;5.68;86.02;91508.19;5031650;28;20064;-86
2022/03/30 05:27:49;;;;;;;42.70;20.55;;;;;;;6.09;84.20;91570.00;5015033;28;20037;-87
2022/03/30 05:30:15;;;;;;;40.20;19.38;;;;;;;6.15;83.80;91579.28;5045571;28;20048;-86
2022/03/30 05:32:45;;;;;;;36.25;20.00;;;;;;;6.09;84.27;91567.41;5041548;28;20242;-87
2022/03/30 05:35:12;;;;;;;44.30;20.42;;;;;;;6.22;84.31;91577.88;5045054;28;20037;-86
2022/03/30 05:37:38;;;;;;;44.45;19.05;;;;;;;6.26;84.84;91585.91;5045336;28;20490;-86
2022/03/30 05:40:05;;;;;;;38.05;19.10;;;;;;;6.09;84.99;91554.41;5029713;28;20037;-87
2022/03/30 05:42:31;;;;;;;39.17;19.33;;;;;;;6.08;84.34;91558.06;5033449;28;20451;-85
2022/03/30 05:44:57;;;;;;;37.80;19.67;;;;;;;6.20;84.10;91571.41;5047251;28;20116;-86
2022/03/30 05:47:22;;;;;;;35.80;18.50;;;;;;;6.24;84.68;91562.00;5009078;28;20124;-87
2022/03/30 05:49:48;;;;;;;39.10;18.25;;;;;;;6.34;84.84;91577.44;5051149;28;20540;-85
2022/03/30 05:52:13;;;;;;;40.70;19.17;;;;;;;6.33;85.02;91575.91;5050733;28;20047;-86
2022/03/30 05:54:39;;;;;;;36.42;18.52;;;;;;;6.39;84.79;91581.81;5050577;28;20045;-86
2022/03/30 05:57:05;;;;;;;32.40;18.30;;;;;;;6.21;84.58;91568.56;5043953;28;20034;-86
2022/03/30 05:59:39;;;;;;;34.42;18.92;;;;;;;6.34;85.76;91579.28;5048711;28;20041;-88
2022/03/30 06:02:08;;;;;;;36.85;20.33;;;;;;;6.22;85.56;91564.13;5029589;28;20553;-86
2022/03/30 06:04:33;;;;;;;41.20;19.65;;;;;;;6.37;85.59;91596.91;5033254;28;20052;-87
2022/03/30 06:06:59;;;;;;;34.65;19.00;;;;;;;6.25;85.20;91577.31;5034067;28;20037;-86
2022/03/30 06:09:25;;;;;;;37.28;18.92;;;;;;;6.34;85.39;91589.69;5033942;28;20051;-85
2022/03/30 06:11:50;;;;;;;33.45;18.70;;;;;;;6.26;85.06;91580.69;5033407;28;20087;-87
2022/03/30 06:14:16;;;;;;;31.90;18.65;;;;;;;6.39;85.17;91598.16;5040623;28;20076;-86
2022/03/30 06:16:43;;;;;;;41.83;19.15;;;;;;;6.42;85.69;91600.22;5042540;28;20053;-86
2022/03/30 06:19:10;;;;;;;39.25;19.35;;;;;;;6.29;85.04;91580.13;5036162;28;20045;-87
2022/03/30 06:21:36;;;;;;;32.40;17.90;;;;;;;6.41;84.34;91611.66;5045469;28;20033;-86
2022/03/30 06:24:02;;;;;;;33.78;17.80;;;;;;;6.44;83.91;91613.72;5054822;28;20033;-85
2022/03/30 06:26:28;;;;;;;42.03;18.95;;;;;;;6.43;84.14;91604.34;5047759;28;20045;-86
2022/03/30 06:28:55;;;;;;;33.58;17.00;;;;;;;6.38;84.53;91608.88;5030679;28;20037;-85
2022/03/30 06:31:21;;;;;;;27.48;14.60;;;;;;;6.39;84.10;91600.00;5053418;28;20049;-86
2022/03/30 06:33:47;;;;;;;30.95;14.43;;;;;;;6.41;82.71;91609.06;5054959;28;20029;-87
2022/03/30 06:36:14;;;;;;;29.05;14.93;;;;;;;6.36;82.30;91606.53;5041435;28;20545;-85
2022/03/30 06:38:42;;;;;;;28.80;15.73;;;;;;;6.30;84.54;91593.88;5036248;28;20091;-87
2022/03/30 06:41:08;;;;;;;28.50;15.05;;;;;;;6.36;83.99;91611.72;5053521;28;20044;-85
2022/03/30 06:43:36;;;;;;;32.58;15.98;;;;;;;6.27;85.31;91597.06;5054273;28;20037;-85
2022/03/30 06:46:02;;;;;;;35.75;17.48;;;;;;;6.31;85.30;91598.06;5053022;28;20052;-86
2022/03/30 06:48:30;;;;;;;38.53;17.67;;;;;;;6.26;86.47;91596.28;5054057;28;20037;-86
2022/03/30 06:50:59;;;;;;;28.75;16.30;;;;;;;6.32;86.59;91621.13;5033145;28;20095;-86
2022/03/30 06:53:25;;;;;;;38.50;17.13;;;;;;;6.33;88.03;91593.34;5052720;28;20373;-86
2022/03/30 06:55:50;;;;;;;36.72;18.67;;;;;;;6.37;87.09;91602.91;5053472;28;20037;-86
2022/03/30 06:58:16;;;;;;;31.70;16.42;;;;;;;6.45;86.85;91610.03;5052951;28;20600;-85
2022/03/30 07:00:42;;;;;;;32.13;17.52;;;;;;;6.43;87.74;91601.75;5052529;28;20041;-90
2022/03/30 07:03:08;;;;;;;34.58;18.08;;;;;;;6.53;87.71;91606.06;5056454;28;20061;-86
2022/03/30 07:05:33;;;;;;;35.80;18.20;;;;;;;6.50;88.36;91600.63;5036215;28;20045;-85
2022/03/30 07:10:43;;;;;;;33.65;18.50;;;;;;;6.45;89.74;91591.84;5033182;28;20049;-85
2022/03/30 07:13:10;;;;;;;32.83;18.05;;;;;;;6.44;90.02;91587.72;5047932;28;20041;-86
2022/03/30 07:15:38;;;;;;;33.38;18.35;;;;;;;6.37;89.65;91584.69;5052570;28;20048;-85
2022/03/30 07:18:06;;;;;;;31.25;18.20;;;;;;;6.24;88.88;91580.97;5049519;28;20107;-86
2022/03/30 07:20:32;;;;;;;39.20;19.70;;;;;;;6.30;89.34;91592.06;5046982;28;20064;-85
2022/03/30 07:22:58;;;;;;;37.47;19.23;;;;;;;6.12;89.75;91574.63;5049456;28;20069;-87
2022/03/30 07:25:24;;;;;;;35.63;19.90;;;;;;;6.31;90.27;91596.22;5049357;28;20041;-85
2022/03/30 07:27:53;;;;;;;35.85;20.05;;;;;;;6.34;90.79;91597.47;5047069;28;20064;-85
2022/03/30 07:30:20;;;;;;;37.45;19.60;;;;;;;6.28;91.72;91588.97;5016403;28;20033;-85
2022/03/30 07:32:48;;;;;;;46.28;21.02;;;;;;;6.17;91.68;91570.16;5042429;28;20033;-86
2022/03/30 07:35:17;;;;;;;36.40;20.00;;;;;;;6.32;91.23;91589.94;5047276;28;20041;-85
2022/03/30 07:37:44;;;;;;;33.28;19.83;;;;;;;6.16;92.47;91567.84;5053778;28;20095;-85
2022/03/30 07:40:16;;;;;;;39.50;20.30;;;;;;;6.29;91.90;91589.75;5057158;28;20037;-84
2022/03/30 07:42:42;;;;;;;35.00;20.52;;;;;;;6.27;92.61;91597.06;5033890;28;20386;-85
2022/03/30 07:45:09;;;;;;;36.13;19.50;;;;;;;6.25;91.75;91586.94;5052639;28;20045;-85
2022/03/30 07:47:35;;;;;;;33.40;19.30;;;;;;;6.30;92.42;91597.25;5053126;28;20032;-85
2022/03/30 07:50:02;;;;;;;35.65;19.90;;;;;;;6.27;92.13;91589.25;5052498;28;20041;-84
2022/03/30 07:52:27;;;;;;;30.42;18.25;;;;;;;6.18;91.66;91583.91;5047042;28;20037;-85
2022/03/30 07:54:54;;;;;;;31.20;18.42;;;;;;;6.15;93.11;91574.09;5026500;28;20044;-86
2022/03/30 07:57:26;;;;;;;33.40;19.00;;;;;;;6.17;92.54;91570.16;5053244;28;20037;-84
2022/03/30 07:59:56;;;;;;;29.27;17.58;;;;;;;6.09;92.51;91586.38;5031962;28;20432;-85
2022/03/30 08:02:22;;;;;;;27.92;17.48;;;;;;;6.17;92.46;91572.75;5016455;28;20103;-86
2022/03/30 08:04:49;;;;;;;27.92;16.65;;;;;;;6.25;91.70;91576.53;5032059;28;20046;-86
2022/03/30 08:07:15;;;;;;;27.15;16.80;;;;;;;6.24;91.19;91577.59;5020387;28;20033;-85
2022/03/30 08:09:42;;;;;;;30.67;17.70;;;;;;;6.29;91.07;91574.16;5034708;28;20040;-87
2022/03/30 08:12:12;;;;;;;30.50;16.38;;;;;;;6.38;90.97;91583.63;5033650;28;20100;-85
2022/03/30 08:14:38;;;;;;;34.65;17.00;;;;;;;6.28;89.63;91573.38;5055732;28;20052;-86
2022/03/30 08:17:04;;;;;;;35.75;17.67;;;;;;;6.34;90.49;91577.44;5051433;28;20037;-86
2022/03/30 08:19:30;;;;;;;265.98;21.05;;;;;;;6.38;93.04;91578.44;5053299;28;20041;-85
2022/03/30 08:24:39;;;;;;;87.95;17.10;;;;;;;6.09;95.65;91559.63;5028279;28;20045;-90
2022/03/30 08:27:05;;;;;;;137.93;18.05;;;;;;;5.93;97.66;91570.19;5036629;28;20041;-85
2022/03/30 08:29:31;;;;;;;34.08;18.83;;;;;;;5.57;98.71;91546.47;5047789;28;20037;-86
2022/03/30 08:31:57;;;;;;;53.63;18.73;;;;;;;5.82;98.84;91576.56;5048262;28;20048;-86
2022/03/30 08:34:23;;;;;;;305.45;22.13;;;;;;;5.72;99.66;91548.88;5030760;28;20030;-85
2022/03/30 08:36:49;;;;;;;235.45;17.48;;;;;;;5.90;100.00;91572.53;5008659;28;20571;-86
2022/03/30 08:39:15;;;;;;;207.75;21.90;;;;;;;5.83;100.00;91570.28;5031367;28;20129;-86
2022/03/30 08:41:41;;;;;;;93.95;21.00;;;;;;;5.64;100.00;91547.66;5030931;28;20044;-85
2022/03/30 08:44:08;;;;;;;402.58;25.08;;;;;;;5.62;100.00;91554.19;5014502;28;20048;-86
2022/03/30 08:46:34;;;;;;;52.50;21.75;;;;;;;5.57;100.00;91555.03;5029456;28;20034;-85
2022/03/30 08:48:59;;;;;;;58.08;20.45;;;;;;;5.63;100.00;91561.72;5051992;28;20048;-85
2022/03/30 08:51:26;;;;;;;80.50;20.52;;;;;;;5.53;100.00;91548.84;5030898;28;20068;-86
2022/03/30 08:53:51;;;;;;;57.17;21.08;;;;;;;5.58;100.00;91566.19;5046995;28;20040;-84
2022/03/30 08:56:17;;;;;;;95.05;24.88;;;;;;;5.44;100.00;91560.88;5016665;28;20037;-85
2022/03/30 08:58:43;;;;;;;154.25;21.95;;;;;;;5.41;100.00;91545.88;5001124;28;20064;-92
2022/03/30 09:01:14;;;;;;;58.92;22.38;;;;;;;5.45;100.00;91567.63;5019137;28;20030;-85
2022/03/30 09:03:56;;;;;;;447.60;24.85;;;;;;;5.60;100.00;91558.88;5031790;28;20076;-86
2022/03/30 09:06:34;;;;;;;;;;;;;;;5.66;100.00;91567.41;5033714;28;20287;-85
2022/03/30 09:09:00;;;;;;;362.63;22.05;;;;;;;5.56;100.00;91569.06;5018688;28;20003;-85
2022/03/30 09:11:37;;;;;;;36.05;19.55;;;;;;;5.34;100.00;91566.19;5052037;28;20148;-86
2022/03/30 09:14:04;;;;;;;42.88;23.35;;;;;;;5.22;100.00;91556.97;5050513;28;20494;-85
2022/03/30 09:16:39;;;;;;;36.35;20.38;;;;;;;5.30;100.00;91576.34;5033068;28;20083;-86
2022/03/30 09:19:06;;;;;;;46.38;21.67;;;;;;;5.40;100.00;91549.50;5051298;28;20068;-86
2022/03/30 09:21:49;;;;;;;58.20;25.80;;;;;;;5.61;100.00;91563.81;5032047;28;20050;-84
2022/03/30 09:24:18;;;;;;;42.70;22.65;;;;;;;5.41;100.00;91541.44;5046020;28;20037;-84
2022/03/30 09:26:45;;;;;;;107.22;23.17;;;;;;;5.53;100.00;91543.66;5033394;28;20387;-85
2022/03/30 09:29:11;;;;;;;42.28;22.58;;;;;;;5.61;100.00;91550.06;5034671;28;20044;-85
2022/03/30 09:31:42;;;;;;;53.03;22.40;;;;;;;5.77;100.00;91568.81;5024331;28;20192;-84
2022/03/30 09:34:09;;;;;;;40.30;20.92;;;;;;;5.60;97.73;91538.88;5029849;28;20355;-84
2022/03/30 09:36:37;;;;;;;36.70;20.00;;;;;;;5.56;99.27;91540.50;5034084;28;20036;-85
2022/03/30 09:39:05;;;;;;;40.88;21.23;;;;;;;5.62;98.13;91560.16;5050719;28;20025;-86
2022/03/30 09:41:52;;;;;;;42.33;21.77;;;;;;;5.59;99.64;91550.34;5032975;28;20406;-90
2022/03/30 09:44:18;;;;;;;41.47;20.30;;;;;;;5.55;99.33;91533.00;5031570;28;20063;-89
2022/03/30 09:46:52;;;;;;;41.55;22.60;;;;;;;5.62;98.87;91526.41;5032512;28;20072;-84
2022/03/30 09:49:44;;;;;;;39.50;20.50;;;;;;;5.75;98.15;91550.16;5032286;28;20029;-86
2022/03/30 09:52:13;;;;;;;37.70;19.95;;;;;;;5.80;96.01;91537.09;5050552;28;20044;-85
2022/03/30 09:54:47;;;;;;;41.22;20.52;;;;;;;5.58;97.98;91525.44;5016511;28;20029;-85
2022/03/30 09:57:19;;;;;;;40.83;23.08;;;;;;;5.46;99.74;91504.28;5033918;28;20041;-86
2022/03/30 10:00:18;;;;;;;44.20;23.05;;;;;;;5.75;98.06;91540.53;5031077;28;20033;-86
2022/03/30 10:02:48;;;;;;;45.03;21.65;;;;;;;5.78;98.93;91521.78;5024751;28;20068;-86
2022/03/30 10:05:17;;;;;;;42.83;21.67;;;;;;;5.95;98.61;91529.13;5020989;28;20041;-85
2022/03/30 10:07:43;;;;;;;43.38;21.60;;;;;;;6.02;98.51;91503.56;5047179;28;20021;-85
2022/03/30 10:10:11;;;;;;;37.83;19.73;;;;;;;6.28;96.84;91515.41;5032776;28;20041;-87
2022/03/30 10:12:37;;;;;;;35.22;17.42;;;;;;;6.30;92.72;91513.31;5032855;28;20044;-85
2022/03/30 10:15:04;;;;;;;35.63;19.00;;;;;;;6.35;92.59;91495.03;5031297;28;20021;-85
2022/03/30 10:17:30;;;;;;;32.92;18.27;;;;;;;6.28;92.54;91485.00;5031649;28;20047;-85
2022/03/30 10:19:58;;;;;;;37.58;18.90;;;;;;;6.38;91.38;91490.06;5032456;28;20037;-86
2022/03/30 10:22:45;;;;;;;34.63;18.85;;;;;;;6.53;91.90;91506.44;5049373;28;20092;-85
2022/03/30 10:25:45;;;;;;;37.40;20.05;;;;;;;6.61;91.97;91503.22;5045862;28;20037;-87
2022/03/30 10:28:43;;;;;;;35.95;18.85;;;;;;;6.29;93.04;91478.75;5032604;28;20076;-84
2022/03/30 10:31:10;;;;;;;35.35;19.83;;;;;;;6.44;94.66;91490.75;5032387;28;20040;-84
2022/03/30 10:33:44;;;;;;;43.33;20.88;;;;;;;6.46;94.55;91466.00;5032890;28;20120;-85
2022/03/30 10:36:32;;;;;;;32.95;17.52;;;;;;;6.65;91.02;91483.38;5045710;28;20037;-85
2022/03/30 10:39:17;;;;;;;35.47;18.98;;;;;;;6.46;91.19;91470.41;5042629;28;20081;-85
2022/03/30 10:41:51;;;;;;;35.50;19.40;;;;;;;6.38;96.13;91474.47;5032776;28;20029;-86
2022/03/30 10:44:41;;;;;;;40.83;21.40;;;;;;;6.23;96.36;91461.69;5032387;28;20033;-86
2022/03/30 10:47:21;;;;;;;45.22;22.63;;;;;;;6.20;95.70;91463.03;5050464;28;20037;-85
2022/03/30 10:49:51;;;;;;;44.40;20.77;;;;;;;6.18;95.04;91446.97;5029127;28;20398;-85
2022/03/30 10:52:34;;;;;;;39.97;18.30;;;;;;;6.45;92.03;91466.28;5014993;28;20026;-86
2022/03/30 10:55:15;;;;;;;35.83;18.05;;;;;;;6.51;92.04;91465.16;5026698;28;20052;-86
2022/03/30 10:57:47;;;;;;;37.58;20.00;;;;;;;6.43;91.35;91432.78;5045542;28;20040;-85
2022/03/30 11:00:21;;;;;;;40.75;21.13;;;;;;;6.41;93.31;91457.50;5045172;28;20072;-84
2022/03/30 11:02:47;;;;;;;48.80;22.42;;;;;;;6.57;95.16;91450.22;5050222;28;20080;-85
2022/03/30 11:05:15;;;;;;;39.85;20.77;;;;;;;6.54;93.80;91448.97;5049851;28;20088;-86
2022/03/30 11:07:42;;;;;;;46.55;23.90;;;;;;;6.32;95.21;91436.59;5050551;28;20037;-85
2022/03/30 11:10:21;;;;;;;51.85;26.05;;;;;;;6.41;95.65;91452.31;5012559;28;20254;-85
2022/03/30 11:13:22;;;;;;;46.90;22.23;;;;;;;6.31;94.70;91436.91;5036201;28;20391;-85
2022/03/30 11:16:11;;;;;;;55.28;25.17;;;;;;;6.51;96.73;91441.75;5036059;28;20029;-85
2022/03/30 11:18:54;;;;;;;52.83;25.55;;;;;;;6.54;95.20;91437.81;5052469;28;20091;-86
2022/03/30 11:21:20;;;;;;;55.67;27.40;;;;;;;6.43;95.92;91419.00;5040887;28;20451;-86
2022/03/30 11:24:10;;;;;;;64.22;27.85;;;;;;;6.58;95.97;91433.59;5067076;28;20055;-86
2022/03/30 11:26:48;;;;;;;61.92;29.25;;;;;;;6.64;96.70;91437.63;5062733;28;20069;-85
2022/03/30 11:29:41;;;;;;;58.42;28.35;;;;;;;6.69;96.44;91432.34;5032163;28;20092;-85
2022/03/30 11:32:22;;;;;;;57.75;26.40;;;;;;;6.49;96.61;91432.72;5049602;28;20064;-86
2022/03/30 11:34:54;;;;;;;61.00;29.50;;;;;;;6.39;98.83;91407.63;5037365;28;20111;-85
2022/03/30 11:37:25;;;;;;;58.25;27.95;;;;;;;6.62;95.59;91417.13;5048784;28;20124;-86
2022/03/30 11:39:59;;;;;;;56.00;27.63;;;;;;;6.66;94.09;91427.69;5049575;28;20048;-86
2022/03/30 11:42:26;;;;;;;49.58;26.02;;;;;;;6.76;93.83;91419.72;5032337;28;20045;-86
2022/03/30 11:47:36;;;;;;;50.95;25.35;;;;;;;6.96;90.78;91405.56;5034194;28;20513;-86
2022/03/30 11:50:03;;;;;;;51.47;26.95;;;;;;;7.04;90.98;91417.13;5045877;28;20042;-86
2022/03/30 11:52:29;;;;;;;61.85;28.92;;;;;;;6.94;92.85;91406.94;5041658;28;20103;-85
2022/03/30 11:54:55;;;;;;;52.72;27.60;;;;;;;6.87;93.31;91402.88;5012862;28;20041;-86
2022/03/30 11:57:22;;;;;;;58.72;27.42;;;;;;;6.83;93.74;91388.13;5047465;28;20064;-86
2022/03/30 11:59:56;;;;;;;55.58;25.58;;;;;;;6.93;93.40;91400.94;5032160;28;20041;-86
2022/03/30 12:02:22;;;;;;;54.88;26.30;;;;;;;6.79;93.55;91395.72;5036747;28;20049;-85
2022/03/30 12:04:48;;;;;;;55.00;24.50;;;;;;;6.80;92.98;91379.09;5018118;28;20116;-86
2022/03/30 12:07:15;;;;;;;45.85;24.40;;;;;;;6.79;92.47;91387.94;5027887;28;20121;-85
2022/03/30 12:09:58;;;;;;;52.28;26.17;;;;;;;6.62;90.38;91393.72;5015193;28;20033;-87
2022/03/30 12:12:36;;;;;;;48.88;22.90;;;;;;;6.67;86.31;91393.63;5035787;28;20114;-85
2022/03/30 12:15:11;;;;;;;50.05;23.83;;;;;;;6.55;87.40;91376.94;5032787;28;20042;-85
2022/03/30 12:17:37;;;;;;;46.53;24.77;;;;;;;6.60;90.24;91387.28;5051374;28;20041;-85
2022/03/30 12:20:05;;;;;;;57.33;26.17;;;;;;;6.56;91.08;91387.06;5051317;28;20040;-86
2022/03/30 12:22:32;;;;;;;55.30;24.58;;;;;;;6.62;90.06;91379.91;5043335;28;20021;-87
2022/03/30 12:24:57;;;;;;;58.83;26.08;;;;;;;6.69;91.29;91367.34;5047793;28;20033;-85
2022/03/30 12:27:25;;;;;;;58.05;27.77;;;;;;;6.78;91.14;91372.63;5030368;28;20033;-86
2022/03/30 12:29:55;;;;;;;52.17;27.33;;;;;;;6.85;92.25;91368.56;5006985;28;20060;-85
2022/03/30 12:32:23;;;;;;;49.65;25.20;;;;;;;6.70;87.50;91355.84;5047780;28;20037;-88
2022/03/30 12:34:49;;;;;;;47.00;21.63;;;;;;;6.70;82.54;91355.84;5034490;28;20047;-85
2022/03/30 12:37:24;;;;;;;37.72;19.40;;;;;;;6.82;81.37;91374.38;5049584;28;20036;-85
2022/03/30 12:44:56;;;;;;;;;;;;;;;;;;;;;
2022/03/30 12:52:15;;;;;;;39.03;20.05;;;;;;;6.19;84.03;91317.78;4954363;28;20413;-86
2022/03/30 12:55:34;;;;;;;36.58;20.58;;;;;;;6.12;85.45;91284.38;5051241;28;20029;-86
2022/03/30 12:59:44;;;;;;;;;;;;;;;;;;;;;
2022/03/30 13:07:08;;;;;;;35.75;18.45;;;;;;;6.67;82.76;91281.03;5027888;28;20493;-85
2022/03/30 13:14:07;;;;;;;38.03;20.05;;;;;;;7.14;83.55;91310.25;4979814;28;20365;-88
2022/03/30 13:25:36;;;;;;;37.25;20.00;;;;;;;7.61;79.47;91299.56;4917299;29;20043;-87